createdAt,value
2018-07-28T00:00:18.608Z,24.90
2018-07-28T00:05:13.835Z,25.00
2018-07-28T00:07:41.422Z,24.80
2018-07-28T00:12:38.135Z,24.60
2018-07-28T00:15:08.114Z,24.70
2018-07-28T00:17:35.732Z,24.80
2018-07-28T00:20:04.242Z,24.90
2018-07-28T00:22:31.744Z,24.60
2018-07-28T00:24:59.275Z,24.50
2018-07-28T00:29:54.314Z,24.60
2018-07-28T00:32:21.811Z,24.60
2018-07-28T00:34:49.334Z,24.50
2018-07-28T00:37:16.822Z,24.50
2018-07-28T00:39:44.374Z,24.40
2018-07-28T00:42:12.009Z,24.10
2018-07-28T00:44:39.525Z,24.30
2018-07-28T00:47:07.040Z,24.10
2018-07-28T00:49:34.554Z,24.20
2018-07-28T00:52:03.894Z,24.20
2018-07-28T00:54:31.414Z,24.20
2018-07-28T00:59:26.404Z,24.40
2018-07-28T01:01:53.918Z,24.50
2018-07-28T01:04:21.455Z,24.40
2018-07-28T01:06:48.936Z,24.50
2018-07-28T01:09:16.631Z,24.30
2018-07-28T01:11:44.203Z,24.40
2018-07-28T01:14:11.737Z,24.60
2018-07-28T01:16:39.392Z,24.10
2018-07-28T01:19:07.038Z,24.10
2018-07-28T01:21:34.610Z,23.90
2018-07-28T01:24:02.135Z,23.80
2018-07-28T01:26:29.654Z,23.80
2018-07-28T01:29:02.888Z,24.10
2018-07-28T01:31:30.403Z,24.10
2018-07-28T01:33:57.930Z,23.90
2018-07-28T01:36:25.451Z,24.00
2018-07-28T01:38:52.959Z,24.00
2018-07-28T01:41:20.605Z,24.00
2018-07-28T01:43:48.166Z,23.90
2018-07-28T01:46:15.687Z,23.90
2018-07-28T01:48:43.523Z,24.00
2018-07-28T01:51:11.128Z,23.80
2018-07-28T01:53:38.659Z,23.80
2018-07-28T01:56:06.464Z,23.50
2018-07-28T01:58:33.995Z,23.70
2018-07-28T02:01:01.511Z,23.80
2018-07-28T02:03:29.087Z,24.10
2018-07-28T02:08:24.121Z,23.40
2018-07-28T02:10:51.655Z,23.70
2018-07-28T02:13:19.164Z,23.70
2018-07-28T02:15:46.702Z,23.60
2018-07-28T02:18:14.590Z,23.50
2018-07-28T02:20:42.163Z,23.40
2018-07-28T02:23:09.683Z,23.50
2018-07-28T02:25:37.235Z,23.60
2018-07-28T02:30:32.298Z,23.40
2018-07-28T02:32:59.815Z,23.20
2018-07-28T02:35:27.353Z,23.30
2018-07-28T02:37:54.860Z,23.50
2018-07-28T02:40:22.395Z,23.60
2018-07-28T02:42:52.831Z,23.40
2018-07-28T02:45:20.359Z,23.70
2018-07-28T02:50:15.388Z,23.60
2018-07-28T02:52:42.871Z,23.60
2018-07-28T02:55:10.439Z,23.50
2018-07-28T02:57:37.919Z,23.20
2018-07-28T03:00:06.764Z,23.10
2018-07-28T03:02:34.544Z,23.40
2018-07-28T03:05:02.043Z,23.30
2018-07-28T03:07:29.658Z,23.30
2018-07-28T03:09:57.185Z,23.20
2018-07-28T03:12:24.777Z,23.40
2018-07-28T03:14:52.282Z,23.40
2018-07-28T03:17:20.278Z,23.30
2018-07-28T03:19:47.763Z,23.10
2018-07-28T03:22:15.282Z,23.10
2018-07-28T03:27:10.413Z,22.90
2018-07-28T03:29:38.008Z,22.90
2018-07-28T03:32:05.563Z,23.00
2018-07-28T03:34:33.100Z,22.90
2018-07-28T03:39:28.081Z,22.90
2018-07-28T03:41:55.902Z,23.00
2018-07-28T03:44:23.427Z,22.90
2018-07-28T03:46:50.935Z,23.00
2018-07-28T03:49:18.555Z,23.00
2018-07-28T03:54:14.076Z,23.10
2018-07-28T03:56:41.572Z,23.10
2018-07-28T03:59:09.120Z,23.10
2018-07-28T04:01:36.648Z,23.10
2018-07-28T04:04:04.903Z,23.00
2018-07-28T04:06:32.336Z,23.30
2018-07-28T04:08:59.834Z,23.10
2018-07-28T04:11:27.362Z,23.10
2018-07-28T04:13:54.859Z,23.10
2018-07-28T04:16:22.408Z,23.00
2018-07-28T04:18:49.900Z,22.90
2018-07-28T04:21:17.422Z,22.80
2018-07-28T04:23:44.939Z,23.10
2018-07-28T04:28:40.027Z,23.20
2018-07-28T04:31:07.481Z,23.20
2018-07-28T04:33:34.996Z,23.20
2018-07-28T04:38:34.753Z,22.90
2018-07-28T04:41:02.316Z,23.20
2018-07-28T04:43:29.767Z,23.20
2018-07-28T04:45:57.347Z,23.30
2018-07-28T04:48:24.864Z,23.10
2018-07-28T04:50:52.333Z,23.30
2018-07-28T04:53:19.947Z,23.10
2018-07-28T04:55:47.467Z,23.20
2018-07-28T04:58:14.980Z,23.20
2018-07-28T05:03:10.017Z,23.30
2018-07-28T05:05:44.242Z,23.40
2018-07-28T05:08:11.727Z,23.40
2018-07-28T05:10:39.212Z,23.70
2018-07-28T05:13:06.839Z,23.80
2018-07-28T05:15:34.374Z,23.90
2018-07-28T05:18:01.931Z,23.90
2018-07-28T05:20:29.447Z,23.70
2018-07-28T05:22:56.971Z,23.80
2018-07-28T05:25:24.633Z,24.00
2018-07-28T05:27:52.120Z,24.00
2018-07-28T05:30:19.640Z,23.70
2018-07-28T05:32:47.102Z,23.70
2018-07-28T05:35:14.583Z,23.90
2018-07-28T05:37:42.102Z,24.00
2018-07-28T05:40:09.657Z,24.10
2018-07-28T05:45:05.329Z,24.00
2018-07-28T05:47:32.967Z,24.10
2018-07-28T05:50:00.570Z,24.00
2018-07-28T05:52:28.049Z,24.10
2018-07-28T05:54:55.571Z,24.00
2018-07-28T05:57:23.059Z,24.20
2018-07-28T05:59:50.846Z,24.20
2018-07-28T06:02:18.327Z,24.20
2018-07-28T06:04:45.867Z,24.20
2018-07-28T06:07:13.372Z,24.20
2018-07-28T06:09:40.996Z,24.30
2018-07-28T06:12:08.523Z,24.60
2018-07-28T06:14:36.022Z,24.60
2018-07-28T06:17:03.567Z,24.60
2018-07-28T06:19:31.031Z,24.70
2018-07-28T06:21:58.577Z,24.80
2018-07-28T06:24:26.093Z,24.80
2018-07-28T06:26:53.702Z,24.80
2018-07-28T06:29:21.163Z,24.90
2018-07-28T06:31:48.721Z,24.90
2018-07-28T06:34:16.126Z,25.10
2018-07-28T06:36:43.731Z,25.00
2018-07-28T06:39:13.063Z,25.10
2018-07-28T06:41:40.613Z,25.10
2018-07-28T06:44:08.103Z,25.10
2018-07-28T06:46:35.615Z,25.30
2018-07-28T06:49:03.133Z,25.40
2018-07-28T06:51:30.663Z,25.40
2018-07-28T06:53:58.110Z,25.50
2018-07-28T06:56:25.587Z,25.50
2018-07-28T06:58:53.049Z,25.50
2018-07-28T07:01:20.656Z,25.30
2018-07-28T07:03:48.497Z,25.50
2018-07-28T07:08:43.529Z,25.60
2018-07-28T07:11:11.204Z,25.60
2018-07-28T07:13:38.684Z,25.80
2018-07-28T07:16:06.239Z,25.80
2018-07-28T07:18:33.699Z,25.80
2018-07-28T07:21:01.342Z,25.90
2018-07-28T07:23:28.846Z,25.90
2018-07-28T07:25:56.555Z,26.10
2018-07-28T07:28:24.119Z,26.00
2018-07-28T07:30:51.611Z,26.00
2018-07-28T07:33:19.100Z,26.10
2018-07-28T07:35:46.756Z,26.00
2018-07-28T07:40:41.872Z,26.30
2018-07-28T07:43:09.349Z,26.40
2018-07-28T07:45:36.888Z,26.40
2018-07-28T07:50:31.961Z,26.60
2018-07-28T07:52:59.415Z,26.60
2018-07-28T07:55:27.447Z,26.70
2018-07-28T07:57:54.913Z,26.70
2018-07-28T08:00:22.478Z,26.80
2018-07-28T08:02:49.971Z,26.70
2018-07-28T08:05:17.443Z,26.70
2018-07-28T08:07:44.902Z,26.80
2018-07-28T08:10:12.357Z,26.80
2018-07-28T08:12:39.851Z,26.90
2018-07-28T08:17:34.748Z,27.10
2018-07-28T08:20:02.255Z,27.10
2018-07-28T08:22:29.714Z,27.30
2018-07-28T08:24:57.162Z,27.30
2018-07-28T08:27:24.621Z,27.40
2018-07-28T08:29:52.070Z,27.50
2018-07-28T08:32:19.529Z,27.50
2018-07-28T08:34:46.976Z,27.60
2018-07-28T08:37:14.508Z,27.60
2018-07-28T08:39:41.942Z,27.60
2018-07-28T08:42:09.418Z,27.60
2018-07-28T08:44:36.878Z,27.80
2018-07-28T08:47:04.343Z,27.80
2018-07-28T08:49:31.930Z,27.70
2018-07-28T08:51:59.414Z,27.90
2018-07-28T08:54:26.902Z,28.00
2018-07-28T08:56:54.355Z,28.10
2018-07-28T09:01:49.341Z,28.20
2018-07-28T09:04:16.781Z,28.10
2018-07-28T09:06:44.278Z,28.30
2018-07-28T09:11:39.454Z,28.40
2018-07-28T09:14:07.858Z,28.40
2018-07-28T09:16:35.626Z,28.50
2018-07-28T09:19:03.085Z,28.60
2018-07-28T09:21:30.681Z,28.80
2018-07-28T09:23:58.293Z,28.90
2018-07-28T09:29:00.261Z,28.90
2018-07-28T09:31:28.093Z,28.90
2018-07-28T09:33:55.625Z,28.90
2018-07-28T09:36:23.286Z,29.00
2018-07-28T09:38:51.007Z,29.10
2018-07-28T09:41:18.489Z,29.10
2018-07-28T09:43:46.060Z,29.10
2018-07-28T09:46:13.603Z,29.20
2018-07-28T09:48:41.074Z,29.20
2018-07-28T09:51:09.139Z,29.30
2018-07-28T09:53:36.578Z,29.30
2018-07-28T09:58:31.774Z,29.50
2018-07-28T10:01:30.498Z,29.60
2018-07-28T10:06:25.655Z,29.60
2018-07-28T10:08:53.128Z,29.80
2018-07-28T10:11:20.565Z,29.80
2018-07-28T10:13:48.020Z,29.80
2018-07-28T10:16:16.321Z,29.80
2018-07-28T10:18:43.808Z,29.90
2018-07-28T10:21:11.246Z,29.90
2018-07-28T10:23:38.686Z,29.90
2018-07-28T10:26:06.274Z,29.80
2018-07-28T10:28:33.729Z,29.80
2018-07-28T10:33:28.714Z,29.80
2018-07-28T10:35:56.185Z,29.90
2018-07-28T10:38:23.643Z,29.90
2018-07-28T10:40:51.139Z,30.00
2018-07-28T10:43:18.593Z,30.20
2018-07-28T10:45:46.231Z,30.20
2018-07-28T10:48:13.708Z,30.20
2018-07-28T10:50:41.178Z,30.40
2018-07-28T10:53:08.646Z,30.40
2018-07-28T10:55:36.126Z,30.60
2018-07-28T10:58:03.644Z,30.70
2018-07-28T11:00:31.160Z,30.80
2018-07-28T11:02:58.609Z,30.70
2018-07-28T11:05:26.042Z,30.70
2018-07-28T11:07:53.494Z,30.70
2018-07-28T11:10:20.942Z,30.80
2018-07-28T11:12:48.417Z,30.80
2018-07-28T11:15:15.979Z,31.00
2018-07-28T11:17:43.477Z,31.10
2018-07-28T11:20:11.323Z,31.00
2018-07-28T11:22:38.833Z,31.00
2018-07-28T11:25:07.274Z,30.90
2018-07-28T11:30:02.815Z,31.20
2018-07-28T11:32:41.771Z,31.10
2018-07-28T11:35:20.864Z,31.20
2018-07-28T11:38:34.124Z,31.20
2018-07-28T11:41:13.185Z,31.30
2018-07-28T11:43:52.143Z,31.20
2018-07-28T11:46:19.606Z,31.20
2018-07-28T11:51:14.569Z,31.40
2018-07-28T11:53:42.002Z,31.60
2018-07-28T11:56:09.496Z,31.60
2018-07-28T11:58:36.983Z,31.60
2018-07-28T12:01:04.729Z,31.70
2018-07-28T12:03:32.530Z,31.70
2018-07-28T12:05:59.963Z,31.90
2018-07-28T12:13:22.449Z,32.10
2018-07-28T12:15:49.990Z,32.00
2018-07-28T12:18:17.463Z,32.10
2018-07-28T12:20:44.915Z,32.20
2018-07-28T12:23:12.375Z,32.10
2018-07-28T12:25:39.982Z,32.40
2018-07-28T12:28:07.466Z,32.30
2018-07-28T12:33:06.370Z,32.60
2018-07-28T12:35:33.857Z,32.50
2018-07-28T12:38:01.315Z,32.60
2018-07-28T12:40:28.794Z,32.60
2018-07-28T12:42:56.265Z,32.70
2018-07-28T12:45:23.756Z,32.60
2018-07-28T12:50:18.610Z,32.90
2018-07-28T12:52:46.236Z,33.10
2018-07-28T13:00:08.997Z,33.10
2018-07-28T13:02:36.530Z,33.20
2018-07-28T13:05:05.231Z,32.90
2018-07-28T13:07:32.668Z,33.00
2018-07-28T13:10:00.102Z,33.00
2018-07-28T13:12:27.770Z,33.00
2018-07-28T13:14:55.216Z,33.10
2018-07-28T13:17:22.649Z,33.40
2018-07-28T13:19:50.345Z,33.60
2018-07-28T13:22:17.815Z,33.70
2018-07-28T13:24:45.328Z,33.60
2018-07-28T13:27:12.766Z,33.70
2018-07-28T13:32:07.759Z,33.70
2018-07-28T13:34:35.274Z,34.00
2018-07-28T13:37:02.731Z,34.20
2018-07-28T13:39:30.206Z,34.40
2018-07-28T13:41:57.998Z,34.20
2018-07-28T13:44:25.465Z,33.60
2018-07-28T13:46:52.923Z,33.20
2018-07-28T13:51:47.803Z,33.20
2018-07-28T13:54:15.297Z,33.20
2018-07-28T13:59:11.641Z,33.90
2018-07-28T14:01:39.389Z,34.10
2018-07-28T14:04:06.994Z,34.20
2018-07-28T14:06:34.467Z,34.50
2018-07-28T14:09:02.422Z,34.60
2018-07-28T14:13:57.365Z,34.30
2018-07-28T14:16:24.980Z,34.20
2018-07-28T14:18:52.555Z,34.00
2018-07-28T14:21:20.184Z,33.70
2018-07-28T14:26:16.478Z,33.10
2018-07-28T14:28:44.000Z,32.80
2018-07-28T14:31:11.559Z,32.90
2018-07-28T14:33:38.979Z,32.70
2018-07-28T14:36:06.458Z,32.60
2018-07-28T14:38:33.895Z,32.70
2018-07-28T14:41:02.743Z,32.60
2018-07-28T14:43:30.301Z,32.60
2018-07-28T14:45:57.835Z,32.60
2018-07-28T14:48:25.349Z,32.50
2018-07-28T14:50:52.829Z,32.60
2018-07-28T14:53:20.269Z,32.40
2018-07-28T14:55:47.731Z,32.40
2018-07-28T14:58:15.315Z,32.50
2018-07-28T15:00:42.874Z,32.30
2018-07-28T15:03:10.333Z,32.20
2018-07-28T15:05:37.855Z,32.00
2018-07-28T15:08:05.312Z,30.30
2018-07-28T15:10:32.801Z,29.40
2018-07-28T15:13:00.278Z,27.90
2018-07-28T15:15:27.731Z,27.30
2018-07-28T15:17:55.272Z,26.60
2018-07-28T15:20:22.736Z,26.00
2018-07-28T15:22:50.261Z,25.90
2018-07-28T15:25:17.750Z,25.70
2018-07-28T15:27:45.185Z,25.20
2018-07-28T15:30:12.678Z,24.50
2018-07-28T15:32:40.158Z,23.90
2018-07-28T15:35:07.666Z,23.70
2018-07-28T15:37:35.112Z,23.40
2018-07-28T15:42:30.079Z,22.90
2018-07-28T15:44:57.595Z,22.90
2018-07-28T15:47:25.153Z,23.10
2018-07-28T15:49:52.599Z,22.80
2018-07-28T15:52:20.050Z,22.50
2018-07-28T15:54:47.581Z,22.40
2018-07-28T15:57:15.079Z,22.70
2018-07-28T15:59:42.536Z,22.80
2018-07-28T16:02:10.116Z,23.00
2018-07-28T16:04:37.544Z,22.90
2018-07-28T16:09:32.614Z,23.00
2018-07-28T16:12:00.071Z,23.10
2018-07-28T16:14:27.512Z,23.20
2018-07-28T16:16:55.136Z,23.20
2018-07-28T16:19:22.617Z,23.30
2018-07-28T16:21:50.099Z,23.30
2018-07-28T16:24:17.559Z,23.30
2018-07-28T16:26:45.366Z,23.40
2018-07-28T16:31:40.253Z,23.60
2018-07-28T16:34:08.040Z,23.80
2018-07-28T16:36:35.501Z,23.70
2018-07-28T16:41:31.051Z,23.40
2018-07-28T16:43:58.477Z,23.30
2018-07-28T16:48:53.395Z,23.30
2018-07-28T16:51:20.881Z,23.50
2018-07-28T16:53:48.361Z,23.60
2018-07-28T16:56:15.848Z,23.90
2018-07-28T17:01:10.832Z,24.20
2018-07-28T17:03:38.452Z,24.00
2018-07-28T17:06:05.917Z,24.20
2018-07-28T17:08:33.350Z,24.40
2018-07-28T17:11:00.920Z,24.30
2018-07-28T17:13:28.341Z,23.80
2018-07-28T17:15:55.847Z,23.30
2018-07-28T17:18:23.309Z,23.30
2018-07-28T17:20:51.063Z,23.50
2018-07-28T17:23:18.580Z,23.80
2018-07-28T17:25:46.050Z,24.00
2018-07-28T17:30:41.101Z,24.40
2018-07-28T17:33:08.595Z,24.60
2018-07-28T17:35:37.144Z,24.60
2018-07-28T17:38:04.686Z,24.80
2018-07-28T17:40:32.139Z,24.80
2018-07-28T17:42:59.607Z,25.10
2018-07-28T17:45:27.097Z,25.00
2018-07-28T17:47:54.584Z,24.60
2018-07-28T17:52:49.541Z,24.40
2018-07-28T17:55:16.985Z,24.30
2018-07-28T17:57:44.528Z,24.10
2018-07-28T18:00:12.383Z,24.10
2018-07-28T18:02:39.901Z,24.00
2018-07-28T18:05:07.846Z,23.90
2018-07-28T18:07:35.465Z,23.70
2018-07-28T18:10:03.090Z,23.90
2018-07-28T18:12:30.690Z,24.20
2018-07-28T18:17:25.813Z,24.10
2018-07-28T18:19:53.281Z,24.00
2018-07-28T18:22:20.910Z,24.00
2018-07-28T18:27:15.961Z,23.90
2018-07-28T18:34:38.286Z,23.60
2018-07-28T18:37:05.815Z,23.70
2018-07-28T18:39:33.298Z,23.70
2018-07-28T18:44:28.393Z,23.60
2018-07-28T18:46:55.850Z,23.40
2018-07-28T18:49:23.327Z,23.70
2018-07-28T18:51:50.825Z,23.50
2018-07-28T18:54:18.293Z,23.60
2018-07-28T18:56:45.798Z,23.50
2018-07-28T18:59:13.359Z,23.50
2018-07-28T19:01:40.811Z,23.70
2018-07-28T19:04:08.276Z,23.80
2018-07-28T19:06:35.817Z,23.70
2018-07-28T19:09:10.604Z,23.80
2018-07-28T19:11:38.123Z,23.80
2018-07-28T19:14:11.275Z,23.70
2018-07-28T19:16:38.750Z,23.70
2018-07-28T19:19:12.162Z,23.50
2018-07-28T19:21:39.690Z,23.40
2018-07-28T19:24:07.151Z,23.30
2018-07-28T19:26:34.595Z,23.10
2018-07-28T19:29:07.829Z,23.00
2018-07-28T19:31:35.351Z,23.00
2018-07-28T19:34:04.331Z,23.00
2018-07-28T19:36:37.503Z,22.90
2018-07-28T19:39:07.126Z,22.90
2018-07-28T19:41:40.417Z,23.10
2018-07-28T19:44:07.857Z,23.00
2018-07-28T19:46:35.304Z,22.80
2018-07-28T19:49:02.794Z,22.80
2018-07-28T19:51:30.221Z,22.90
2018-07-28T19:53:57.711Z,22.90
2018-07-28T19:56:25.166Z,22.70
2018-07-28T19:58:52.613Z,22.70
2018-07-28T20:01:20.036Z,22.70
2018-07-28T20:06:15.042Z,22.60
2018-07-28T20:11:09.959Z,22.80
2018-07-28T20:13:37.435Z,22.70
2018-07-28T20:16:04.890Z,22.60
2018-07-28T20:18:32.640Z,22.70
2018-07-28T20:25:55.118Z,22.60
2018-07-28T20:28:22.683Z,22.50
2018-07-28T20:30:50.193Z,22.70
2018-07-28T20:33:17.615Z,22.80
2018-07-28T20:35:45.087Z,22.70
2018-07-28T20:38:12.543Z,22.70
2018-07-28T20:40:40.045Z,22.60
2018-07-28T20:43:07.463Z,22.50
2018-07-28T20:45:35.005Z,22.40
2018-07-28T20:48:02.519Z,22.50
2018-07-28T20:52:57.439Z,22.70
2018-07-28T20:55:24.902Z,22.60
2018-07-28T20:57:52.330Z,22.60
2018-07-28T21:00:19.810Z,22.70
2018-07-28T21:02:47.247Z,22.50
2018-07-28T21:05:14.717Z,22.60
2018-07-28T21:10:09.692Z,22.40
2018-07-28T21:12:37.138Z,22.20
2018-07-28T21:15:05.722Z,21.70
2018-07-28T21:17:33.194Z,21.90
2018-07-28T21:20:00.707Z,22.10
2018-07-28T21:22:28.260Z,22.10
2018-07-28T21:24:55.776Z,22.20
2018-07-28T21:27:23.250Z,22.30
2018-07-28T21:32:18.704Z,22.10
2018-07-28T21:34:46.239Z,21.90
2018-07-28T21:39:41.675Z,21.90
2018-07-28T21:42:09.361Z,22.10
2018-07-28T21:44:36.830Z,21.80
2018-07-28T21:47:05.082Z,21.80
2018-07-28T21:49:35.088Z,21.70
2018-07-28T21:52:02.601Z,21.70
2018-07-28T21:54:30.108Z,21.60
2018-07-28T21:56:57.653Z,21.70
2018-07-28T21:59:25.210Z,21.50
2018-07-28T22:01:52.681Z,21.50
2018-07-28T22:04:26.888Z,21.50
2018-07-28T22:06:54.383Z,21.40
2018-07-28T22:09:21.883Z,21.50
2018-07-28T22:14:16.945Z,21.70
2018-07-28T22:16:44.503Z,21.50
2018-07-28T22:19:11.964Z,21.50
2018-07-28T22:21:39.482Z,21.40
2018-07-28T22:24:06.947Z,21.60
2018-07-28T22:29:01.973Z,21.40
2018-07-28T22:31:29.482Z,21.50
2018-07-28T22:33:59.839Z,21.80
2018-07-28T22:38:54.962Z,21.60
2018-07-28T22:41:22.447Z,21.60
2018-07-28T22:43:49.998Z,21.20
2018-07-28T22:46:17.499Z,21.60
2018-07-28T22:48:44.961Z,21.80
2018-07-28T22:51:12.457Z,21.40
2018-07-28T22:53:39.909Z,21.30
2018-07-28T22:56:07.446Z,21.20
2018-07-28T22:58:34.907Z,21.30
2018-07-28T23:01:02.490Z,21.20
2018-07-28T23:03:30.140Z,21.00
2018-07-28T23:05:57.709Z,21.10
2018-07-28T23:08:25.175Z,21.10
2018-07-28T23:10:52.671Z,21.20
2018-07-28T23:13:20.186Z,21.30
2018-07-28T23:15:53.463Z,21.30
2018-07-28T23:18:21.008Z,21.30
2018-07-28T23:23:16.099Z,21.60
2018-07-28T23:25:43.760Z,21.60
2018-07-28T23:28:11.262Z,21.70
2018-07-28T23:30:38.735Z,21.90
2018-07-28T23:33:06.254Z,21.90
2018-07-28T23:35:33.709Z,21.60
2018-07-28T23:38:01.223Z,21.60
2018-07-28T23:40:29.068Z,21.50
2018-07-28T23:42:56.615Z,21.60
2018-07-28T23:45:25.128Z,21.60
2018-07-28T23:47:52.664Z,21.50
2018-07-28T23:50:20.227Z,21.60
2018-07-28T23:52:47.735Z,21.40
2018-07-28T23:55:15.217Z,21.40
2018-07-28T23:57:42.747Z,21.30
